sensor_id;sensor_type;location;lat;lon;timestamp;pressure;altitude;pressure_sealevel;temperature;humidity
54308;BME280;40208;39.778;2.710;2023-02-14T00:01:24;103400.81;;;4.34;100.00
54308;BME280;40208;39.778;2.710;2023-02-14T00:04:09;103403.56;;;4.38;100.00
54308;BME280;40208;39.778;2.710;2023-02-14T00:06:54;103385.97;;;4.34;100.00
54308;BME280;40208;39.778;2.710;2023-02-14T00:09:39;103384.94;;;4.29;100.00
54308;BME280;40208;39.778;2.710;2023-02-14T00:12:23;103385.59;;;4.19;100.00
54308;BME280;40208;39.778;2.710;2023-02-14T00:15:09;103374.19;;;4.18;100.00
54308;BME280;40208;39.778;2.710;2023-02-14T00:18:05;103366.38;;;4.21;100.00
54308;BME280;40208;39.778;2.710;2023-02-14T00:20:50;103371.69;;;4.23;100.00
54308;BME280;40208;39.778;2.710;2023-02-14T00:23:35;103369.00;;;4.21;100.00
54308;BME280;40208;39.778;2.710;2023-02-14T00:26:20;103365.56;;;4.24;100.00
54308;BME280;40208;39.778;2.710;2023-02-14T00:29:05;103363.03;;;4.29;100.00
54308;BME280;40208;39.778;2.710;2023-02-14T00:31:50;103355.09;;;4.25;100.00
54308;BME280;40208;39.778;2.710;2023-02-14T00:34:35;103354.88;;;4.16;100.00
54308;BME280;40208;39.778;2.710;2023-02-14T00:37:20;103266.91;;;3.63;100.00
54308;BME280;40208;39.778;2.710;2023-02-14T00:40:05;103353.09;;;4.15;100.00
54308;BME280;40208;39.778;2.710;2023-02-14T00:42:50;103351.19;;;4.08;100.00
54308;BME280;40208;39.778;2.710;2023-02-14T00:45:35;103349.41;;;4.07;100.00
54308;BME280;40208;39.778;2.710;2023-02-14T00:48:20;103344.97;;;4.04;100.00
54308;BME280;40208;39.778;2.710;2023-02-14T00:51:04;103344.03;;;4.02;100.00
54308;BME280;40208;39.778;2.710;2023-02-14T00:53:49;103347.53;;;4.03;100.00
54308;BME280;40208;39.778;2.710;2023-02-14T00:56:34;103334.44;;;4.04;100.00
54308;BME280;40208;39.778;2.710;2023-02-14T00:59:19;103336.25;;;4.07;100.00
54308;BME280;40208;39.778;2.710;2023-02-14T01:02:04;103333.59;;;4.06;100.00
54308;BME280;40208;39.778;2.710;2023-02-14T01:04:49;103331.72;;;4.00;100.00
54308;BME280;40208;39.778;2.710;2023-02-14T01:07:34;103331.81;;;4.04;100.00
54308;BME280;40208;39.778;2.710;2023-02-14T01:10:18;103330.06;;;4.05;100.00
54308;BME280;40208;39.778;2.710;2023-02-14T01:13:03;103316.81;;;3.99;100.00
54308;BME280;40208;39.778;2.710;2023-02-14T01:15:49;103319.50;;;4.02;100.00
54308;BME280;40208;39.778;2.710;2023-02-14T01:18:35;103315.13;;;4.02;100.00
54308;BME280;40208;39.778;2.710;2023-02-14T01:21:21;103323.94;;;4.04;100.00
54308;BME280;40208;39.778;2.710;2023-02-14T01:24:06;103310.84;;;4.06;100.00
54308;BME280;40208;39.778;2.710;2023-02-14T01:26:51;103315.19;;;4.06;100.00
54308;BME280;40208;39.778;2.710;2023-02-14T01:29:36;103314.09;;;3.96;100.00
54308;BME280;40208;39.778;2.710;2023-02-14T01:32:21;103311.56;;;4.00;100.00
54308;BME280;40208;39.778;2.710;2023-02-14T01:35:05;103302.53;;;3.88;100.00
54308;BME280;40208;39.778;2.710;2023-02-14T01:37:50;103316.59;;;3.90;100.00
54308;BME280;40208;39.778;2.710;2023-02-14T01:40:40;103311.34;;;3.90;100.00
54308;BME280;40208;39.778;2.710;2023-02-14T01:43:25;103326.19;;;3.88;100.00
54308;BME280;40208;39.778;2.710;2023-02-14T01:46:10;103323.38;;;3.81;100.00
54308;BME280;40208;39.778;2.710;2023-02-14T01:48:57;103319.84;;;3.79;100.00
54308;BME280;40208;39.778;2.710;2023-02-14T01:51:48;103311.84;;;3.75;100.00
54308;BME280;40208;39.778;2.710;2023-02-14T01:54:34;103305.72;;;3.74;100.00
54308;BME280;40208;39.778;2.710;2023-02-14T01:57:22;103311.72;;;3.69;100.00
54308;BME280;40208;39.778;2.710;2023-02-14T02:00:12;103312.38;;;3.60;100.00
54308;BME280;40208;39.778;2.710;2023-02-14T02:03:15;103314.88;;;3.54;100.00
54308;BME280;40208;39.778;2.710;2023-02-14T02:06:11;103307.75;;;3.50;100.00
54308;BME280;40208;39.778;2.710;2023-02-14T02:11:54;103314.63;;;3.45;100.00
54308;BME280;40208;39.778;2.710;2023-02-14T02:14:39;103311.31;;;3.53;100.00
54308;BME280;40208;39.778;2.710;2023-02-14T02:17:27;103317.44;;;3.52;100.00
54308;BME280;40208;39.778;2.710;2023-02-14T02:35:27;103321.88;;;3.55;100.00
54308;BME280;40208;39.778;2.710;2023-02-14T02:38:30;103314.06;;;3.56;100.00
54308;BME280;40208;39.778;2.710;2023-02-14T02:44:17;103310.22;;;3.44;100.00
54308;BME280;40208;39.778;2.710;2023-02-14T02:47:15;103309.38;;;3.45;100.00
54308;BME280;40208;39.778;2.710;2023-02-14T02:50:12;103316.13;;;3.35;100.00
54308;BME280;40208;39.778;2.710;2023-02-14T02:56:15;103322.03;;;3.26;100.00
54308;BME280;40208;39.778;2.710;2023-02-14T02:59:22;103321.16;;;3.26;100.00
54308;BME280;40208;39.778;2.710;2023-02-14T03:02:18;103324.56;;;3.23;100.00
54308;BME280;40208;39.778;2.710;2023-02-14T03:05:05;103328.97;;;3.24;100.00
54308;BME280;40208;39.778;2.710;2023-02-14T03:07:50;103323.03;;;3.31;100.00
54308;BME280;40208;39.778;2.710;2023-02-14T03:10:35;103330.06;;;3.32;100.00
54308;BME280;40208;39.778;2.710;2023-02-14T03:13:29;103328.97;;;3.24;100.00
54308;BME280;40208;39.778;2.710;2023-02-14T03:16:24;103334.28;;;3.26;100.00
54308;BME280;40208;39.778;2.710;2023-02-14T03:28:21;103337.22;;;3.38;100.00
54308;BME280;40208;39.778;2.710;2023-02-14T03:31:07;103331.78;;;3.32;100.00
54308;BME280;40208;39.778;2.710;2023-02-14T03:34:06;103337.81;;;3.28;100.00
54308;BME280;40208;39.778;2.710;2023-02-14T03:37:03;103328.31;;;3.33;100.00
54308;BME280;40208;39.778;2.710;2023-02-14T03:40:01;103330.97;;;3.34;100.00
54308;BME280;40208;39.778;2.710;2023-02-14T03:42:53;103329.41;;;3.41;100.00
54308;BME280;40208;39.778;2.710;2023-02-14T03:45:55;103328.63;;;3.45;100.00
54308;BME280;40208;39.778;2.710;2023-02-14T03:48:42;103328.75;;;3.50;100.00
54308;BME280;40208;39.778;2.710;2023-02-14T03:51:28;103331.56;;;3.57;100.00
54308;BME280;40208;39.778;2.710;2023-02-14T03:54:17;103330.75;;;3.60;100.00
54308;BME280;40208;39.778;2.710;2023-02-14T03:57:14;103326.38;;;3.60;100.00
54308;BME280;40208;39.778;2.710;2023-02-14T04:00:01;103328.81;;;3.53;100.00
54308;BME280;40208;39.778;2.710;2023-02-14T04:02:47;103328.00;;;3.55;100.00
54308;BME280;40208;39.778;2.710;2023-02-14T04:05:33;103328.75;;;3.50;100.00
54308;BME280;40208;39.778;2.710;2023-02-14T04:08:21;103326.19;;;3.53;100.00
54308;BME280;40208;39.778;2.710;2023-02-14T04:11:06;103322.50;;;3.45;100.00
54308;BME280;40208;39.778;2.710;2023-02-14T04:13:50;103329.44;;;3.43;100.00
54308;BME280;40208;39.778;2.710;2023-02-14T04:16:35;103322.53;;;3.46;100.00
54308;BME280;40208;39.778;2.710;2023-02-14T04:19:39;103322.31;;;3.37;100.00
54308;BME280;40208;39.778;2.710;2023-02-14T04:22:23;103323.34;;;3.44;100.00
54308;BME280;40208;39.778;2.710;2023-02-14T04:25:08;103320.34;;;3.28;100.00
54308;BME280;40208;39.778;2.710;2023-02-14T04:27:53;103325.59;;;3.28;100.00
54308;BME280;40208;39.778;2.710;2023-02-14T04:30:37;103323.78;;;3.26;100.00
54308;BME280;40208;39.778;2.710;2023-02-14T04:33:22;103327.19;;;3.23;100.00
54308;BME280;40208;39.778;2.710;2023-02-14T04:36:07;103321.97;;;3.23;100.00
54308;BME280;40208;39.778;2.710;2023-02-14T04:38:52;103328.16;;;3.27;100.00
54308;BME280;40208;39.778;2.710;2023-02-14T04:41:36;103330.78;;;3.27;100.00
54308;BME280;40208;39.778;2.710;2023-02-14T04:44:21;103335.16;;;3.26;100.00
54308;BME280;40208;39.778;2.710;2023-02-14T04:47:06;103326.47;;;3.29;100.00
54308;BME280;40208;39.778;2.710;2023-02-14T04:49:51;103323.56;;;3.18;100.00
54308;BME280;40208;39.778;2.710;2023-02-14T04:52:36;103324.53;;;3.22;100.00
54308;BME280;40208;39.778;2.710;2023-02-14T04:55:21;103324.16;;;3.08;100.00
54308;BME280;40208;39.778;2.710;2023-02-14T04:58:06;103324.13;;;3.06;100.00
54308;BME280;40208;39.778;2.710;2023-02-14T05:00:51;103323.19;;;3.04;100.00
54308;BME280;40208;39.778;2.710;2023-02-14T05:03:36;103326.75;;;3.06;100.00
54308;BME280;40208;39.778;2.710;2023-02-14T05:06:20;103322.47;;;3.10;100.00
54308;BME280;40208;39.778;2.710;2023-02-14T05:09:05;103325.03;;;3.07;100.00
54308;BME280;40208;39.778;2.710;2023-02-14T05:11:50;103314.41;;;3.04;100.00
54308;BME280;40208;39.778;2.710;2023-02-14T05:14:35;103322.41;;;3.08;100.00
54308;BME280;40208;39.778;2.710;2023-02-14T05:17:19;103320.53;;;3.03;100.00
54308;BME280;40208;39.778;2.710;2023-02-14T05:20:04;103317.03;;;3.02;100.00
54308;BME280;40208;39.778;2.710;2023-02-14T05:22:49;103320.59;;;3.04;100.00
54308;BME280;40208;39.778;2.710;2023-02-14T05:25:34;103321.38;;;3.02;100.00
54308;BME280;40208;39.778;2.710;2023-02-14T05:28:19;103319.38;;;2.93;100.00
54308;BME280;40208;39.778;2.710;2023-02-14T05:31:04;103322.91;;;2.93;100.00
54308;BME280;40208;39.778;2.710;2023-02-14T05:33:48;103325.44;;;2.90;100.00
54308;BME280;40208;39.778;2.710;2023-02-14T05:36:33;103326.81;;;2.78;100.00
54308;BME280;40208;39.778;2.710;2023-02-14T05:39:18;103324.31;;;2.81;100.00
54308;BME280;40208;39.778;2.710;2023-02-14T05:42:03;103332.91;;;2.76;100.00
54308;BME280;40208;39.778;2.710;2023-02-14T05:44:48;103334.78;;;2.81;100.00
54308;BME280;40208;39.778;2.710;2023-02-14T05:47:32;103334.00;;;2.83;100.00
54308;BME280;40208;39.778;2.710;2023-02-14T05:50:17;103326.13;;;2.85;100.00
54308;BME280;40208;39.778;2.710;2023-02-14T05:53:02;103323.50;;;2.83;100.00
54308;BME280;40208;39.778;2.710;2023-02-14T05:55:48;103322.34;;;2.73;100.00
54308;BME280;40208;39.778;2.710;2023-02-14T05:58:33;103325.06;;;2.76;100.00
54308;BME280;40208;39.778;2.710;2023-02-14T06:01:18;103334.47;;;2.70;100.00
54308;BME280;40208;39.778;2.710;2023-02-14T06:04:02;103331.59;;;2.61;100.00
54308;BME280;40208;39.778;2.710;2023-02-14T06:06:47;103334.41;;;2.67;100.00
54308;BME280;40208;39.778;2.710;2023-02-14T06:09:32;103331.97;;;2.73;100.00
54308;BME280;40208;39.778;2.710;2023-02-14T06:12:17;103334.59;;;2.74;100.00
54308;BME280;40208;39.778;2.710;2023-02-14T06:15:02;103339.84;;;2.73;100.00
54308;BME280;40208;39.778;2.710;2023-02-14T06:18:05;103326.59;;;2.70;100.00
54308;BME280;40208;39.778;2.710;2023-02-14T06:20:51;103325.84;;;2.74;100.00
54308;BME280;40208;39.778;2.710;2023-02-14T06:23:36;103327.50;;;2.70;100.00
54308;BME280;40208;39.778;2.710;2023-02-14T06:26:21;103323.97;;;2.68;100.00
54308;BME280;40208;39.778;2.710;2023-02-14T06:29:06;103318.59;;;2.64;100.00
54308;BME280;40208;39.778;2.710;2023-02-14T06:31:51;103325.31;;;2.55;100.00
54308;BME280;40208;39.778;2.710;2023-02-14T06:34:35;103321.09;;;2.61;100.00
54308;BME280;40208;39.778;2.710;2023-02-14T06:37:20;103313.22;;;2.59;100.00
54308;BME280;40208;39.778;2.710;2023-02-14T06:40:05;103342.56;;;2.47;100.00
54308;BME280;40208;39.778;2.710;2023-02-14T06:42:50;103326.19;;;2.54;100.00
54308;BME280;40208;39.778;2.710;2023-02-14T06:45:35;103324.50;;;2.57;100.00
54308;BME280;40208;39.778;2.710;2023-02-14T06:48:20;103331.44;;;2.54;100.00
54308;BME280;40208;39.778;2.710;2023-02-14T06:51:05;103335.88;;;2.59;100.00
54308;BME280;40208;39.778;2.710;2023-02-14T06:53:49;103341.25;;;2.62;100.00
54308;BME280;40208;39.778;2.710;2023-02-14T06:56:34;103344.53;;;2.54;100.00
54308;BME280;40208;39.778;2.710;2023-02-14T06:59:19;103345.56;;;2.60;100.00
54308;BME280;40208;39.778;2.710;2023-02-14T07:02:04;103352.66;;;2.64;100.00
54308;BME280;40208;39.778;2.710;2023-02-14T07:04:49;103358.72;;;2.61;100.00
54308;BME280;40208;39.778;2.710;2023-02-14T07:07:34;103364.03;;;2.64;100.00
54308;BME280;40208;39.778;2.710;2023-02-14T07:10:18;103363.97;;;2.63;100.00
54308;BME280;40208;39.778;2.710;2023-02-14T07:13:03;103376.28;;;2.65;100.00
54308;BME280;40208;39.778;2.710;2023-02-14T07:15:48;103369.00;;;2.55;100.00
54308;BME280;40208;39.778;2.710;2023-02-14T07:18:33;103369.88;;;2.55;100.00
54308;BME280;40208;39.778;2.710;2023-02-14T07:21:18;103369.28;;;2.64;100.00
54308;BME280;40208;39.778;2.710;2023-02-14T07:24:02;103361.63;;;2.72;100.00
54308;BME280;40208;39.778;2.710;2023-02-14T07:26:47;103368.78;;;2.78;100.00
54308;BME280;40208;39.778;2.710;2023-02-14T07:29:33;103372.31;;;2.78;100.00
54308;BME280;40208;39.778;2.710;2023-02-14T07:32:17;103369.97;;;2.89;100.00
54308;BME280;40208;39.778;2.710;2023-02-14T07:35:02;103371.13;;;2.98;100.00
54308;BME280;40208;39.778;2.710;2023-02-14T07:37:48;103372.13;;;3.02;100.00
54308;BME280;40208;39.778;2.710;2023-02-14T07:40:33;103373.88;;;3.03;100.00
54308;BME280;40208;39.778;2.710;2023-02-14T07:43:18;103368.22;;;3.19;100.00
54308;BME280;40208;39.778;2.710;2023-02-14T07:46:03;103376.81;;;3.47;100.00
54308;BME280;40208;39.778;2.710;2023-02-14T07:48:48;103385.38;;;3.75;100.00
54308;BME280;40208;39.778;2.710;2023-02-14T07:51:35;103381.75;;;4.04;100.00
54308;BME280;40208;39.778;2.710;2023-02-14T07:54:20;103372.00;;;4.38;100.00
54308;BME280;40208;39.778;2.710;2023-02-14T07:57:04;103368.38;;;4.74;100.00
54308;BME280;40208;39.778;2.710;2023-02-14T07:59:56;103373.44;;;5.07;100.00
54308;BME280;40208;39.778;2.710;2023-02-14T08:02:40;103386.44;;;5.45;100.00
54308;BME280;40208;39.778;2.710;2023-02-14T08:05:25;103382.63;;;5.77;100.00
54308;BME280;40208;39.778;2.710;2023-02-14T08:08:10;103382.22;;;6.07;100.00
54308;BME280;40208;39.778;2.710;2023-02-14T08:10:55;103374.78;;;6.36;100.00
54308;BME280;40208;39.778;2.710;2023-02-14T08:13:40;103375.97;;;6.61;100.00
54308;BME280;40208;39.778;2.710;2023-02-14T08:16:24;103364.88;;;6.87;100.00
54308;BME280;40208;39.778;2.710;2023-02-14T08:19:09;103371.28;;;7.12;100.00
54308;BME280;40208;39.778;2.710;2023-02-14T08:21:54;103361.94;;;7.43;100.00
54308;BME280;40208;39.778;2.710;2023-02-14T08:24:38;103352.47;;;7.68;100.00
54308;BME280;40208;39.778;2.710;2023-02-14T08:27:23;103349.16;;;7.95;100.00
54308;BME280;40208;39.778;2.710;2023-02-14T08:30:08;103349.31;;;8.23;100.00
54308;BME280;40208;39.778;2.710;2023-02-14T08:32:53;103339.78;;;8.43;100.00
54308;BME280;40208;39.778;2.710;2023-02-14T08:35:38;103339.88;;;8.68;100.00
54308;BME280;40208;39.778;2.710;2023-02-14T08:38:23;103328.47;;;8.89;100.00
54308;BME280;40208;39.778;2.710;2023-02-14T08:41:07;103327.66;;;9.10;100.00
54308;BME280;40208;39.778;2.710;2023-02-14T08:43:52;103335.63;;;9.28;100.00
54308;BME280;40208;39.778;2.710;2023-02-14T08:46:37;103333.88;;;9.47;100.00
54308;BME280;40208;39.778;2.710;2023-02-14T08:49:22;103332.13;;;9.66;100.00
54308;BME280;40208;39.778;2.710;2023-02-14T08:52:06;103331.19;;;9.95;100.00
54308;BME280;40208;39.778;2.710;2023-02-14T08:54:51;103332.03;;;10.18;100.00
54308;BME280;40208;39.778;2.710;2023-02-14T08:57:37;103318.75;;;10.35;100.00
54308;BME280;40208;39.778;2.710;2023-02-14T09:00:22;103325.75;;;10.55;100.00
54308;BME280;40208;39.778;2.710;2023-02-14T09:03:07;103335.44;;;10.62;100.00
54308;BME280;40208;39.778;2.710;2023-02-14T09:05:53;103334.50;;;10.77;100.00
54308;BME280;40208;39.778;2.710;2023-02-14T09:08:38;103328.13;;;11.06;100.00
54308;BME280;40208;39.778;2.710;2023-02-14T09:11:23;103340.47;;;11.17;100.00
54308;BME280;40208;39.778;2.710;2023-02-14T09:14:10;103331.50;;;11.29;100.00
54308;BME280;40208;39.778;2.710;2023-02-14T09:16:54;103334.19;;;11.32;100.00
54308;BME280;40208;39.778;2.710;2023-02-14T09:19:39;103328.78;;;11.38;100.00
54308;BME280;40208;39.778;2.710;2023-02-14T09:22:24;103329.63;;;11.46;100.00
54308;BME280;40208;39.778;2.710;2023-02-14T09:25:09;103331.28;;;11.61;100.00
54308;BME280;40208;39.778;2.710;2023-02-14T09:27:53;103321.38;;;11.74;100.00
54308;BME280;40208;39.778;2.710;2023-02-14T09:30:38;103323.97;;;11.88;100.00
54308;BME280;40208;39.778;2.710;2023-02-14T09:33:25;103322.00;;;12.07;100.00
54308;BME280;40208;39.778;2.710;2023-02-14T09:36:10;103317.34;;;12.27;100.00
54308;BME280;40208;39.778;2.710;2023-02-14T09:39:13;103308.13;;;12.56;100.00
54308;BME280;40208;39.778;2.710;2023-02-14T09:42:20;103309.59;;;12.77;100.00
54308;BME280;40208;39.778;2.710;2023-02-14T09:45:08;103305.91;;;12.86;100.00
54308;BME280;40208;39.778;2.710;2023-02-14T09:48:11;103301.31;;;12.97;100.00
54308;BME280;40208;39.778;2.710;2023-02-14T09:51:22;103296.66;;;13.11;100.00
54308;BME280;40208;39.778;2.710;2023-02-14T09:54:10;103301.75;;;13.30;100.00
54308;BME280;40208;39.778;2.710;2023-02-14T09:59:59;103295.03;;;13.57;100.00
54308;BME280;40208;39.778;2.710;2023-02-14T10:05:55;103293.94;;;13.69;100.00
54308;BME280;40208;39.778;2.710;2023-02-14T10:08:49;103284.75;;;13.87;100.00
54308;BME280;40208;39.778;2.710;2023-02-14T10:11:38;103276.31;;;14.07;100.00
54308;BME280;40208;39.778;2.710;2023-02-14T10:14:30;103283.97;;;14.25;100.00
54308;BME280;40208;39.778;2.710;2023-02-14T10:17:39;103284.66;;;14.35;100.00
54308;BME280;40208;39.778;2.710;2023-02-14T10:20:26;103283.13;;;14.67;100.00
54308;BME280;40208;39.778;2.710;2023-02-14T10:23:23;103284.41;;;14.88;100.00
54308;BME280;40208;39.778;2.710;2023-02-14T10:26:15;103286.75;;;15.03;100.00
54308;BME280;40208;39.778;2.710;2023-02-14T10:29:01;103285.56;;;15.16;100.00
54308;BME280;40208;39.778;2.710;2023-02-14T10:34:48;103276.59;;;15.53;100.00
54308;BME280;40208;39.778;2.710;2023-02-14T10:54:44;103271.84;;;16.58;100.00
54308;BME280;40208;39.778;2.710;2023-02-14T10:57:37;103272.22;;;16.75;100.00
54308;BME280;40208;39.778;2.710;2023-02-14T11:00:27;103267.63;;;16.81;100.00
54308;BME280;40208;39.778;2.710;2023-02-14T11:03:15;103260.00;;;16.95;100.00
54308;BME280;40208;39.778;2.710;2023-02-14T11:05:59;103266.56;;;17.13;100.00
54308;BME280;40208;39.778;2.710;2023-02-14T11:08:44;103259.91;;;17.25;100.00
54308;BME280;40208;39.778;2.710;2023-02-14T11:11:29;103261.59;;;17.27;100.00
54308;BME280;40208;39.778;2.710;2023-02-14T11:14:23;103252.59;;;17.30;100.00
54308;BME280;40208;39.778;2.710;2023-02-14T11:23:16;103232.72;;;17.35;100.00
54308;BME280;40208;39.778;2.710;2023-02-14T11:26:01;103226.78;;;17.51;100.00
54308;BME280;40208;39.778;2.710;2023-02-14T11:29:03;103227.97;;;17.69;100.00
54308;BME280;40208;39.778;2.710;2023-02-14T11:31:53;103220.66;;;17.72;100.00
54308;BME280;40208;39.778;2.710;2023-02-14T11:34:46;103217.72;;;17.80;100.00
54308;BME280;40208;39.778;2.710;2023-02-14T11:37:41;103212.06;;;17.88;100.00
54308;BME280;40208;39.778;2.710;2023-02-14T11:43:19;103205.22;;;18.50;95.68
54308;BME280;40208;39.778;2.710;2023-02-14T11:49:01;103200.66;;;18.96;92.79
54308;BME280;40208;39.778;2.710;2023-02-14T11:51:46;103192.97;;;19.09;91.67
54308;BME280;40208;39.778;2.710;2023-02-14T11:54:33;103181.84;;;19.16;88.38
54308;BME280;40208;39.778;2.710;2023-02-14T12:00:15;103176.22;;;19.22;90.53
54308;BME280;40208;39.778;2.710;2023-02-14T12:03:01;103168.88;;;19.26;87.47
54308;BME280;40208;39.778;2.710;2023-02-14T12:05:49;103170.53;;;19.28;89.56
54308;BME280;40208;39.778;2.710;2023-02-14T12:08:34;103164.19;;;19.50;85.91
54308;BME280;40208;39.778;2.710;2023-02-14T12:11:22;103166.28;;;19.64;87.17
54308;BME280;40208;39.778;2.710;2023-02-14T12:14:08;103165.25;;;19.68;83.91
54308;BME280;40208;39.778;2.710;2023-02-14T12:17:06;103164.75;;;19.58;85.82
54308;BME280;40208;39.778;2.710;2023-02-14T12:22:54;103167.94;;;19.27;85.40
54308;BME280;40208;39.778;2.710;2023-02-14T12:25:43;103170.53;;;19.28;85.33
54308;BME280;40208;39.778;2.710;2023-02-14T12:28:31;103161.19;;;19.17;87.28
54308;BME280;40208;39.778;2.710;2023-02-14T12:31:21;103154.19;;;19.33;86.27
54308;BME280;40208;39.778;2.710;2023-02-14T12:34:08;103153.63;;;19.45;84.21
54308;BME280;40208;39.778;2.710;2023-02-14T12:43:02;103134.97;;;19.41;83.41
54308;BME280;40208;39.778;2.710;2023-02-14T12:51:29;103117.25;;;19.37;86.31
54308;BME280;40208;39.778;2.710;2023-02-14T13:00:14;103102.38;;;19.07;91.51
54308;BME280;40208;39.778;2.710;2023-02-14T13:11:51;102983.28;;;18.20;91.61
54308;BME280;40208;39.778;2.710;2023-02-14T13:23:37;103079.53;;;18.75;95.47
54308;BME280;40208;39.778;2.710;2023-02-14T13:29:09;103068.28;;;18.88;95.74
54308;BME280;40208;39.778;2.710;2023-02-14T13:31:57;103059.19;;;18.90;95.77
54308;BME280;40208;39.778;2.710;2023-02-14T13:34:45;103059.78;;;18.97;96.99
54308;BME280;40208;39.778;2.710;2023-02-14T13:37:30;103055.00;;;18.83;98.07
54308;BME280;40208;39.778;2.710;2023-02-14T13:40:16;103042.44;;;18.83;95.50
54308;BME280;40208;39.778;2.710;2023-02-14T13:43:02;103037.34;;;18.77;98.30
54308;BME280;40208;39.778;2.710;2023-02-14T13:45:50;103040.75;;;18.81;97.03
54308;BME280;40208;39.778;2.710;2023-02-14T13:48:35;103033.03;;;18.72;97.74
54308;BME280;40208;39.778;2.710;2023-02-14T13:51:20;103020.53;;;18.71;98.17
54308;BME280;40208;39.778;2.710;2023-02-14T13:54:18;103011.72;;;18.67;97.26
54308;BME280;40208;39.778;2.710;2023-02-14T13:57:23;103011.59;;;18.50;98.69
54308;BME280;40208;39.778;2.710;2023-02-14T14:03:03;103000.56;;;18.35;99.60
54308;BME280;40208;39.778;2.710;2023-02-14T14:05:56;103002.72;;;18.27;100.00
54308;BME280;40208;39.778;2.710;2023-02-14T14:08:43;102996.13;;;18.34;97.66
54308;BME280;40208;39.778;2.710;2023-02-14T14:17:16;102980.72;;;18.38;99.86
54308;BME280;40208;39.778;2.710;2023-02-14T14:20:02;102972.03;;;18.31;99.75
54308;BME280;40208;39.778;2.710;2023-02-14T14:22:54;102977.50;;;18.30;99.29
54308;BME280;40208;39.778;2.710;2023-02-14T14:25:40;102984.81;;;18.26;100.00
54308;BME280;40208;39.778;2.710;2023-02-14T14:28:27;102979.56;;;18.23;98.27
54308;BME280;40208;39.778;2.710;2023-02-14T14:31:12;102976.25;;;18.16;99.62
54308;BME280;40208;39.778;2.710;2023-02-14T14:33:58;102974.97;;;18.05;100.00
54308;BME280;40208;39.778;2.710;2023-02-14T14:36:43;102975.84;;;18.05;99.17
54308;BME280;40208;39.778;2.710;2023-02-14T14:39:29;102972.22;;;18.06;100.00
54308;BME280;40208;39.778;2.710;2023-02-14T14:42:15;102974.22;;;18.01;100.00
54308;BME280;40208;39.778;2.710;2023-02-14T14:45:07;102972.66;;;17.95;100.00
54308;BME280;40208;39.778;2.710;2023-02-14T14:48:00;102977.16;;;17.95;100.00
54308;BME280;40208;39.778;2.710;2023-02-14T14:50:46;102965.78;;;17.88;100.00
54308;BME280;40208;39.778;2.710;2023-02-14T14:53:47;102967.22;;;17.75;100.00
54308;BME280;40208;39.778;2.710;2023-02-14T14:56:34;102965.81;;;17.65;100.00
54308;BME280;40208;39.778;2.710;2023-02-14T14:59:28;102966.69;;;17.65;100.00
54308;BME280;40208;39.778;2.710;2023-02-14T15:02:23;102965.94;;;17.62;100.00
54308;BME280;40208;39.778;2.710;2023-02-14T15:05:18;102973.94;;;17.63;100.00
54308;BME280;40208;39.778;2.710;2023-02-14T15:13:50;102978.53;;;17.37;100.00
54308;BME280;40208;39.778;2.710;2023-02-14T15:16:39;102980.63;;;17.29;100.00
54308;BME280;40208;39.778;2.710;2023-02-14T15:19:41;102982.72;;;17.21;100.00
54308;BME280;40208;39.778;2.710;2023-02-14T15:22:40;102981.34;;;17.11;100.00
54308;BME280;40208;39.778;2.710;2023-02-14T15:25:27;102987.91;;;17.02;100.00
54308;BME280;40208;39.778;2.710;2023-02-14T15:28:35;102982.94;;;16.91;100.00
54308;BME280;40208;39.778;2.710;2023-02-14T15:31:18;102981.16;;;16.92;100.00
54308;BME280;40208;39.778;2.710;2023-02-14T15:34:03;102979.66;;;16.83;100.00
54308;BME280;40208;39.778;2.710;2023-02-14T15:36:48;102977.22;;;16.75;100.00
54308;BME280;40208;39.778;2.710;2023-02-14T15:39:40;102969.53;;;16.66;100.00
54308;BME280;40208;39.778;2.710;2023-02-14T15:42:26;102974.22;;;16.60;100.00
54308;BME280;40208;39.778;2.710;2023-02-14T15:48:10;102973.13;;;16.40;100.00
54308;BME280;40208;39.778;2.710;2023-02-14T15:50:56;102968.94;;;16.31;100.00
54308;BME280;40208;39.778;2.710;2023-02-14T15:53:43;102981.47;;;16.31;100.00
54308;BME280;40208;39.778;2.710;2023-02-14T15:56:29;102973.69;;;16.23;100.00
54308;BME280;40208;39.778;2.710;2023-02-14T15:59:16;102972.31;;;16.11;100.00
54308;BME280;40208;39.778;2.710;2023-02-14T16:05:17;102970.19;;;15.95;100.00
54308;BME280;40208;39.778;2.710;2023-02-14T16:08:05;102973.88;;;15.90;100.00
54308;BME280;40208;39.778;2.710;2023-02-14T16:17:11;102973.06;;;15.59;100.00
54308;BME280;40208;39.778;2.710;2023-02-14T16:19:57;102974.13;;;15.53;100.00
54308;BME280;40208;39.778;2.710;2023-02-14T16:22:41;102977.81;;;15.49;100.00
54308;BME280;40208;39.778;2.710;2023-02-14T16:25:26;102977.16;;;15.42;100.00
54308;BME280;40208;39.778;2.710;2023-02-14T16:28:10;102984.50;;;15.36;100.00
54308;BME280;40208;39.778;2.710;2023-02-14T16:30:55;102971.28;;;15.30;100.00
54308;BME280;40208;39.778;2.710;2023-02-14T16:33:40;102971.47;;;15.23;100.00
54308;BME280;40208;39.778;2.710;2023-02-14T16:36:26;102965.47;;;15.15;100.00
54308;BME280;40208;39.778;2.710;2023-02-14T16:39:15;102974.44;;;15.14;100.00
54308;BME280;40208;39.778;2.710;2023-02-14T16:42:01;102973.75;;;15.06;100.00
54308;BME280;40208;39.778;2.710;2023-02-14T16:44:46;102974.81;;;15.00;100.00
54308;BME280;40208;39.778;2.710;2023-02-14T16:47:30;102977.63;;;14.96;100.00
54308;BME280;40208;39.778;2.710;2023-02-14T16:50:15;102976.94;;;14.88;100.00
54308;BME280;40208;39.778;2.710;2023-02-14T16:53:01;102978.88;;;14.82;100.00
54308;BME280;40208;39.778;2.710;2023-02-14T16:55:46;102983.47;;;14.77;100.00